Flight Track Log - Related Links

Times and Time Zones

All times are in EDT time to prevent confusion due to time zone crossing. See the N9906L flight status page for this flight to view local times or setup timezone preferences in your user account.

Time Position Orientation Groundspeed Altitude Reporting Facility
EDT Latitude Longitude Course Direction KTS MPH feet Rate Location/Type
Thu 08:38:00 PM 33.0429 -80.5071 40° Northeast  Level FlightAware Approximate
Thu 08:39:00 PM 33.0637 -80.4856 41° Northeast  Level FlightAware Approximate
Thu 08:40:00 PM 33.0844 -80.4640 41° Northeast  Level FlightAware Approximate
Thu 08:41:00 PM 33.1050 -80.4424 41° Northeast  Level FlightAware Approximate
Thu 08:42:00 PM 33.1256 -80.4207 41° Northeast  Level FlightAware Approximate
Thu 08:43:00 PM 33.1463 -80.3990 41° Northeast  Level FlightAware Approximate
Thu 08:44:00 PM 33.1669 -80.3774 41° Northeast  Level FlightAware Approximate
Thu 08:45:00 PM 33.1875 -80.3557 41° Northeast  Level FlightAware Approximate
Thu 08:46:00 PM 33.2081 -80.3340 41° Northeast  Level FlightAware Approximate
Thu 08:47:00 PM 33.2287 -80.3123 41° Northeast  Level FlightAware Approximate
Thu 08:48:00 PM 33.2493 -80.2906 41° Northeast  Level FlightAware Approximate
Thu 08:49:00 PM 33.2699 -80.2689 41° Northeast  Level FlightAware Approximate
Thu 08:50:00 PM 33.2905 -80.2471 41° Northeast  Level FlightAware Approximate
Thu 08:51:00 PM 33.3111 -80.2254 41° Northeast  Level FlightAware Approximate
Thu 08:52:00 PM 33.3317 -80.2036 41° Northeast  Level FlightAware Approximate
Thu 08:53:00 PM 33.3523 -80.1818 41° Northeast  Level FlightAware Approximate
Thu 08:54:00 PM 33.3729 -80.1600 42° Northeast  Level FlightAware Approximate
Thu 08:55:00 PM 33.3934 -80.1382 42° Northeast  Level FlightAware Approximate
Thu 08:56:00 PM 33.4140 -80.1164 42° Northeast  Level FlightAware Approximate
Thu 08:57:00 PM 33.4345 -80.0945 42° Northeast  Level FlightAware Approximate
Thu 08:58:00 PM 33.4551 -80.0726 42° Northeast  Level FlightAware Approximate
Thu 08:59:00 PM 33.4756 -80.0508 42° Northeast  Level FlightAware Approximate
Thu 09:00:00 PM 33.4961 -80.0289 42° Northeast  Level FlightAware Approximate
Thu 09:01:00 PM 33.5166 -80.0070 42° Northeast  Level FlightAware Approximate
Thu 09:02:00 PM 33.5372 -79.9850 42° Northeast  Level FlightAware Approximate
Thu 09:03:00 PM 33.5577 -79.9631 42° Northeast  Level FlightAware Approximate
Thu 09:04:00 PM 33.5782 -79.9412 42° Northeast  Level FlightAware Approximate
Thu 09:05:00 PM 33.5987 -79.9193 42° Northeast  Level FlightAware Approximate
Thu 09:06:00 PM 33.6193 -79.8974 40° Northeast  Level FlightAware Approximate
Thu 09:07:00 PM 33.6404 -79.8763 40° Northeast  Level FlightAware Approximate
Thu 09:08:00 PM 33.6615 -79.8552 40° Northeast  Level FlightAware Approximate
Thu 09:09:00 PM 33.6826 -79.8342 40° Northeast  Level FlightAware Approximate
Thu 09:10:00 PM 33.7038 -79.8130 40° Northeast  Level FlightAware Approximate
Thu 09:11:00 PM 33.7249 -79.7919 40° Northeast  Level FlightAware Approximate
Thu 09:12:00 PM 33.7460 -79.7708 40° Northeast  Level FlightAware Approximate
Thu 09:13:00 PM 33.7671 -79.7497 40° Northeast  Level FlightAware Approximate
Thu 09:14:00 PM 33.7882 -79.7285 40° Northeast  Level FlightAware Approximate
Thu 09:15:00 PM 33.8093 -79.7074 40° Northeast  Level FlightAware Approximate
Thu 09:16:00 PM 33.8300 -79.6856 42° Northeast  Level FlightAware Approximate
Thu 09:17:00 PM 33.8504 -79.6635 42° Northeast  Level FlightAware Approximate
Thu 09:18:00 PM 33.8709 -79.6414 42° Northeast  Level FlightAware Approximate
Thu 09:19:00 PM 33.8913 -79.6193 42° Northeast  Level FlightAware Approximate
Thu 09:20:00 PM 33.9118 -79.5972 42° Northeast  Level FlightAware Approximate
Thu 09:21:00 PM 33.9322 -79.5751 42° Northeast  Level FlightAware Approximate
Thu 09:22:00 PM 33.9526 -79.5529 42° Northeast  Level FlightAware Approximate
Thu 09:23:00 PM 33.9730 -79.5307 42° Northeast  Level FlightAware Approximate
Thu 09:24:00 PM 33.9934 -79.5086 42° Northeast  Level FlightAware Approximate
Thu 09:25:00 PM 34.0139 -79.4864 42° Northeast  Level FlightAware Approximate
Thu 09:26:00 PM 34.0349 -79.4651 40° Northeast  Level FlightAware Approximate
Thu 09:27:00 PM 34.0561 -79.4440 40° Northeast  Level FlightAware Approximate
Thu 09:28:00 PM 34.0772 -79.4228 40° Northeast  Level FlightAware Approximate
Thu 09:29:00 PM 34.0984 -79.4017 40° Northeast  Level FlightAware Approximate
Thu 09:30:00 PM 34.1195 -79.3805 40° Northeast  Level FlightAware Approximate
Thu 09:31:00 PM 34.1407 -79.3593 40° Northeast  Level FlightAware Approximate
Thu 09:32:00 PM 34.1618 -79.3382 40° Northeast  Level FlightAware Approximate
Thu 09:33:00 PM 34.1667 -79.3333 40° Northeast  Level FlightAware Approximate

Login

Don't have an account? Register now (free) for customized features, flight alerts, and more!